createdAt,value
2017-09-21T00:01:28.862Z,7.30
2017-09-21T00:03:56.575Z,7.40
2017-09-21T00:06:24.703Z,8.10
2017-09-21T00:08:52.347Z,6.35
2017-09-21T00:11:20.196Z,6.67
2017-09-21T00:13:47.850Z,8.97
2017-09-21T00:16:15.589Z,7.60
2017-09-21T00:18:43.336Z,6.28
2017-09-21T00:21:11.084Z,8.83
2017-09-21T00:23:38.831Z,6.90
2017-09-21T00:26:06.519Z,5.50
2017-09-21T00:28:34.228Z,5.12
2017-09-21T00:31:01.890Z,6.03
2017-09-21T00:33:30.098Z,6.20
2017-09-21T00:35:57.775Z,7.40
2017-09-21T00:38:25.522Z,6.10
2017-09-21T00:40:53.268Z,9.93
2017-09-21T00:43:20.944Z,5.40
2017-09-21T00:45:48.995Z,5.70
2017-09-21T00:48:17.461Z,7.05
2017-09-21T00:50:45.556Z,6.50
2017-09-21T00:53:13.235Z,7.30
2017-09-21T00:55:41.043Z,6.55
2017-09-21T00:58:08.829Z,6.20
2017-09-21T01:00:36.469Z,5.55
2017-09-21T01:03:04.326Z,6.60
2017-09-21T01:05:32.074Z,4.57
2017-09-21T01:07:59.822Z,5.07
2017-09-21T01:10:27.547Z,10.10
2017-09-21T01:12:55.316Z,5.15
2017-09-21T01:15:23.166Z,5.53
2017-09-21T01:17:51.117Z,6.10
2017-09-21T01:20:18.845Z,5.37
2017-09-21T01:22:46.611Z,6.25
2017-09-21T01:25:14.562Z,5.55
2017-09-21T01:27:42.310Z,5.20
2017-09-21T01:30:10.031Z,5.32
2017-09-21T01:32:37.906Z,7.50
2017-09-21T01:35:05.636Z,5.53
2017-09-21T01:37:33.404Z,4.87
2017-09-21T01:40:01.202Z,5.82
2017-09-21T01:42:28.923Z,5.30
2017-09-21T01:44:57.090Z,5.72
2017-09-21T01:47:25.272Z,5.50
2017-09-21T01:49:52.991Z,6.28
2017-09-21T01:52:21.115Z,5.32
2017-09-21T01:54:48.966Z,5.65
2017-09-21T01:57:16.690Z,5.28
2017-09-21T01:59:44.461Z,5.00
2017-09-21T02:02:12.411Z,5.70
2017-09-21T02:04:40.119Z,7.30
2017-09-21T02:07:07.886Z,5.10
2017-09-21T02:09:35.619Z,4.75
2017-09-21T02:12:03.403Z,5.87
2017-09-21T02:14:31.084Z,5.30
2017-09-21T02:16:58.898Z,8.13
2017-09-21T02:19:26.571Z,6.05
2017-09-21T02:21:54.638Z,5.75
2017-09-21T02:24:22.379Z,6.35
2017-09-21T02:26:50.500Z,4.07
2017-09-21T02:29:18.223Z,6.20
2017-09-21T02:31:45.995Z,4.47
2017-09-21T02:34:13.743Z,4.68
2017-09-21T02:36:41.392Z,4.63
2017-09-21T02:39:09.103Z,10.75
2017-09-21T02:41:36.779Z,6.05
2017-09-21T02:44:04.530Z,4.90
2017-09-21T02:46:32.223Z,4.65
2017-09-21T02:48:59.936Z,5.53
2017-09-21T02:51:27.668Z,5.28
2017-09-21T02:53:55.383Z,4.70
2017-09-21T02:56:23.060Z,5.95
2017-09-21T02:58:50.808Z,4.32
2017-09-21T03:01:18.555Z,4.95
2017-09-21T03:03:46.302Z,7.87
2017-09-21T03:06:14.049Z,6.57
2017-09-21T03:08:41.750Z,7.82
2017-09-21T03:11:09.442Z,5.53
2017-09-21T03:13:37.100Z,6.18
2017-09-21T03:16:04.796Z,4.72
2017-09-21T03:18:32.481Z,4.87
2017-09-21T03:21:00.234Z,4.15
2017-09-21T03:23:27.974Z,5.07
2017-09-21T03:25:55.612Z,4.87
2017-09-21T03:28:23.255Z,4.25
2017-09-21T03:30:51.867Z,4.50
2017-09-21T03:33:19.578Z,10.70
2017-09-21T03:35:47.228Z,3.75
2017-09-21T03:38:14.971Z,4.93
2017-09-21T03:40:42.616Z,4.47
2017-09-21T03:43:10.299Z,4.90
2017-09-21T03:45:38.519Z,4.60
2017-09-21T03:48:06.154Z,3.70
2017-09-21T03:50:33.810Z,5.05
2017-09-21T03:53:01.646Z,4.37
2017-09-21T03:55:29.287Z,3.75
2017-09-21T03:57:56.927Z,4.12
2017-09-21T04:00:26.039Z,4.07
2017-09-21T04:02:54.186Z,4.20
2017-09-21T04:05:22.258Z,4.97
2017-09-21T04:07:49.987Z,6.35
2017-09-21T04:10:17.627Z,3.90
2017-09-21T04:12:45.510Z,3.53
2017-09-21T04:15:13.728Z,4.47
2017-09-21T04:17:41.487Z,3.80
2017-09-21T04:20:09.187Z,3.90
2017-09-21T04:22:36.926Z,3.83
2017-09-21T04:25:04.732Z,4.65
2017-09-21T04:27:32.378Z,4.50
2017-09-21T04:30:00.216Z,3.95
2017-09-21T04:32:27.870Z,4.68
2017-09-21T04:34:55.619Z,4.10
2017-09-21T04:37:23.319Z,3.47
2017-09-21T04:39:51.114Z,4.95
2017-09-21T04:42:18.859Z,4.75
2017-09-21T04:44:46.607Z,3.30
2017-09-21T04:47:14.354Z,5.45
2017-09-21T04:49:42.101Z,6.07
2017-09-21T04:52:09.787Z,3.25
2017-09-21T04:54:37.834Z,5.30
2017-09-21T04:57:05.959Z,4.62
2017-09-21T04:59:33.695Z,4.80
2017-09-21T05:02:01.459Z,4.57
2017-09-21T05:04:29.202Z,4.00
2017-09-21T05:06:56.949Z,4.10
2017-09-21T05:09:24.611Z,8.50
2017-09-21T05:11:52.280Z,4.10
2017-09-21T05:14:20.088Z,6.87
2017-09-21T05:16:47.759Z,4.25
2017-09-21T05:19:15.889Z,3.37
2017-09-21T05:21:43.636Z,4.60
2017-09-21T05:24:11.384Z,5.87
2017-09-21T05:26:39.131Z,4.30
2017-09-21T05:29:06.822Z,6.80
2017-09-21T05:31:34.510Z,5.00
2017-09-21T05:34:02.214Z,17.67
2017-09-21T05:36:30.022Z,4.43
2017-09-21T05:38:57.667Z,4.75
2017-09-21T05:41:25.314Z,8.15
2017-09-21T05:43:53.002Z,3.45
2017-09-21T05:46:20.698Z,3.65
2017-09-21T05:48:48.399Z,4.05
2017-09-21T05:51:16.195Z,5.03
2017-09-21T05:53:43.943Z,9.80
2017-09-21T05:56:11.587Z,6.18
2017-09-21T05:58:39.291Z,4.93
2017-09-21T06:01:06.930Z,5.05
2017-09-21T06:03:34.580Z,6.12
2017-09-21T06:06:02.279Z,5.45
2017-09-21T06:08:29.936Z,10.15
2017-09-21T06:10:58.074Z,7.60
2017-09-21T06:13:25.786Z,4.18
2017-09-21T06:15:53.426Z,5.55
2017-09-21T06:18:21.082Z,4.40
2017-09-21T06:20:48.774Z,4.62
2017-09-21T06:23:16.503Z,6.47
2017-09-21T06:25:44.251Z,4.93
2017-09-21T06:28:11.955Z,5.15
2017-09-21T06:30:39.643Z,5.65
2017-09-21T06:33:07.388Z,5.85
2017-09-21T06:35:35.140Z,7.47
2017-09-21T06:38:02.885Z,7.22
2017-09-21T06:40:30.544Z,12.93
2017-09-21T06:42:58.267Z,5.60
2017-09-21T06:45:25.920Z,5.85
2017-09-21T06:47:53.669Z,8.52
2017-09-21T06:50:21.621Z,4.25
2017-09-21T06:52:49.368Z,5.28
2017-09-21T06:55:17.115Z,6.20
2017-09-21T06:57:44.950Z,10.20
2017-09-21T07:00:12.609Z,4.78
2017-09-21T07:02:40.356Z,7.10
2017-09-21T07:05:08.206Z,5.40
2017-09-21T07:07:35.954Z,6.60
2017-09-21T07:10:03.704Z,8.35
2017-09-21T07:12:31.430Z,6.95
2017-09-21T07:14:59.079Z,7.80
2017-09-21T07:17:26.843Z,7.35
2017-09-21T07:19:54.552Z,10.67
2017-09-21T07:22:22.236Z,8.77
2017-09-21T07:24:49.908Z,12.93
2017-09-21T07:27:18.007Z,10.23
2017-09-21T07:29:45.681Z,11.70
2017-09-21T07:32:13.427Z,10.23
2017-09-21T07:34:41.185Z,10.37
2017-09-21T07:37:08.885Z,12.20
2017-09-21T07:39:36.591Z,11.90
2017-09-21T07:42:04.818Z,15.23
2017-09-21T07:44:32.515Z,12.60
2017-09-21T07:47:00.174Z,21.93
2017-09-21T07:49:27.939Z,13.77
2017-09-21T07:51:55.718Z,12.60
2017-09-21T07:54:23.461Z,14.53
2017-09-21T07:56:51.210Z,19.13
2017-09-21T07:59:18.956Z,20.40
2017-09-21T08:01:46.607Z,19.33
2017-09-21T08:04:14.349Z,20.10
2017-09-21T08:06:42.002Z,24.50
2017-09-21T08:09:09.660Z,20.60
2017-09-21T08:11:37.385Z,21.43
2017-09-21T08:14:05.039Z,21.83
2017-09-21T08:16:32.783Z,22.37
2017-09-21T08:19:00.479Z,21.50
2017-09-21T08:21:28.171Z,23.40
2017-09-21T08:23:55.919Z,18.43
2017-09-21T08:26:23.768Z,19.80
2017-09-21T08:28:51.517Z,19.17
2017-09-21T08:31:19.262Z,21.80
2017-09-21T08:33:46.999Z,21.20
2017-09-21T08:36:14.698Z,21.37
2017-09-21T08:38:42.355Z,25.80
2017-09-21T08:41:10.060Z,22.23
2017-09-21T08:43:37.711Z,22.10
2017-09-21T08:46:05.442Z,21.90
2017-09-21T08:48:33.200Z,28.53
2017-09-21T08:51:00.843Z,23.43
2017-09-21T08:53:28.581Z,18.90
2017-09-21T08:55:56.329Z,21.33
2017-09-21T08:58:23.975Z,19.07
2017-09-21T09:00:51.725Z,19.53
2017-09-21T09:03:19.519Z,25.80
2017-09-21T09:05:47.214Z,23.27
2017-09-21T09:08:14.961Z,21.67
2017-09-21T09:10:42.913Z,20.03
2017-09-21T09:13:10.563Z,20.73
2017-09-21T09:15:38.305Z,18.13
2017-09-21T09:18:06.167Z,17.43
2017-09-21T09:20:33.823Z,18.80
2017-09-21T09:23:01.960Z,18.50
2017-09-21T09:25:29.662Z,18.50
2017-09-21T09:27:57.454Z,17.90
2017-09-21T09:30:25.200Z,15.20
2017-09-21T09:32:53.050Z,15.73
2017-09-21T09:35:20.704Z,14.20
2017-09-21T09:37:48.447Z,16.17
2017-09-21T09:40:16.196Z,14.30
2017-09-21T09:42:43.937Z,13.90
2017-09-21T09:45:11.683Z,12.77
2017-09-21T09:47:39.384Z,13.57
2017-09-21T09:50:07.079Z,15.10
2017-09-21T09:52:34.825Z,16.00
2017-09-21T09:55:02.675Z,13.97
2017-09-21T09:57:30.423Z,13.00
2017-09-21T09:59:58.074Z,14.73
2017-09-21T10:02:26.012Z,13.03
2017-09-21T10:04:53.766Z,12.63
2017-09-21T10:07:21.419Z,11.67
2017-09-21T10:09:49.123Z,12.53
2017-09-21T10:12:16.805Z,10.53
2017-09-21T10:14:44.455Z,11.73
2017-09-21T10:17:12.167Z,15.63
2017-09-21T10:19:39.820Z,9.90
2017-09-21T10:22:07.587Z,10.50
2017-09-21T10:24:35.439Z,11.50
2017-09-21T10:27:03.188Z,11.97
2017-09-21T10:29:30.846Z,9.60
2017-09-21T10:31:58.577Z,12.60
2017-09-21T10:34:26.324Z,8.90
2017-09-21T10:36:54.074Z,12.57
2017-09-21T10:39:21.924Z,11.50
2017-09-21T10:41:49.669Z,12.67
2017-09-21T10:44:17.416Z,10.80
2017-09-21T10:46:45.164Z,17.77
2017-09-21T10:49:12.910Z,13.00
2017-09-21T10:51:40.658Z,12.90
2017-09-21T10:54:08.405Z,13.47
2017-09-21T10:56:36.135Z,13.23
2017-09-21T10:59:04.604Z,12.70
2017-09-21T11:01:32.522Z,14.03
2017-09-21T11:04:00.317Z,17.73
2017-09-21T11:06:28.065Z,17.43
2017-09-21T11:08:55.878Z,15.93
2017-09-21T11:11:23.558Z,16.03
2017-09-21T11:13:51.307Z,25.20
2017-09-21T11:16:19.155Z,15.67
2017-09-21T11:18:46.903Z,12.30
2017-09-21T11:21:14.650Z,13.03
2017-09-21T11:23:42.351Z,12.33
2017-09-21T11:26:10.143Z,13.53
2017-09-21T11:28:37.897Z,13.80
2017-09-21T11:31:05.642Z,16.70
2017-09-21T11:33:33.343Z,13.33
2017-09-21T11:36:01.034Z,9.40
2017-09-21T11:38:28.734Z,9.30
2017-09-21T11:40:56.393Z,11.00
2017-09-21T11:43:24.047Z,16.57
2017-09-21T11:45:51.920Z,11.27
2017-09-21T11:48:19.667Z,10.23
2017-09-21T11:50:47.413Z,9.00
2017-09-21T11:53:15.266Z,11.00
2017-09-21T11:55:43.011Z,10.53
2017-09-21T11:58:10.706Z,12.40
2017-09-21T12:00:38.505Z,10.80
2017-09-21T12:03:06.168Z,9.47
2017-09-21T12:05:33.900Z,8.00
2017-09-21T12:08:01.615Z,10.00
2017-09-21T12:10:29.263Z,10.53
2017-09-21T12:12:56.916Z,8.73
2017-09-21T12:15:24.622Z,8.53
2017-09-21T12:17:52.739Z,7.40
2017-09-21T12:20:20.489Z,6.93
2017-09-21T12:22:48.232Z,10.33
2017-09-21T12:25:15.884Z,8.40
2017-09-21T12:27:43.626Z,8.13
2017-09-21T12:30:11.472Z,7.90
2017-09-21T12:32:39.221Z,7.80
2017-09-21T12:35:06.968Z,7.93
2017-09-21T12:37:34.719Z,6.97
2017-09-21T12:40:02.466Z,7.30
2017-09-21T12:42:30.120Z,7.10
2017-09-21T12:44:57.960Z,9.30
2017-09-21T12:47:25.620Z,13.30
2017-09-21T12:49:53.352Z,7.70
2017-09-21T12:52:21.100Z,12.33
2017-09-21T12:54:48.760Z,6.33
2017-09-21T12:57:16.490Z,6.50
2017-09-21T12:59:44.238Z,7.83
2017-09-21T13:02:11.986Z,5.43
2017-09-21T13:04:39.631Z,6.40
2017-09-21T13:07:07.335Z,8.70
2017-09-21T13:09:34.971Z,4.83
2017-09-21T13:12:02.670Z,5.13
2017-09-21T13:14:30.416Z,5.60
2017-09-21T13:16:58.068Z,6.27
2017-09-21T13:19:25.809Z,6.50
2017-09-21T13:21:53.555Z,5.60
2017-09-21T13:24:21.254Z,5.03
2017-09-21T13:26:49.050Z,5.53
2017-09-21T13:29:16.901Z,5.37
2017-09-21T13:31:44.547Z,5.90
2017-09-21T13:34:12.292Z,5.77
2017-09-21T13:36:40.039Z,6.57
2017-09-21T13:39:07.786Z,6.30
2017-09-21T13:41:35.536Z,6.53
2017-09-21T13:44:03.282Z,7.17
2017-09-21T13:46:30.952Z,8.43
2017-09-21T13:48:59.084Z,7.70
2017-09-21T13:51:26.804Z,6.30
2017-09-21T13:53:54.580Z,7.73
2017-09-21T13:56:22.231Z,8.60
2017-09-21T13:58:49.959Z,11.57
2017-09-21T14:01:17.635Z,7.03
2017-09-21T14:03:45.363Z,6.07
2017-09-21T14:06:13.063Z,6.40
2017-09-21T14:08:40.757Z,9.33
2017-09-21T14:11:08.828Z,7.20
2017-09-21T14:13:36.657Z,5.77
2017-09-21T14:16:04.410Z,8.87
2017-09-21T14:18:32.107Z,6.10
2017-09-21T14:20:59.904Z,9.53
2017-09-21T14:23:27.651Z,8.17
2017-09-21T14:25:55.397Z,7.73
2017-09-21T14:28:23.144Z,7.53
2017-09-21T14:30:50.892Z,10.07
2017-09-21T14:35:52.633Z,10.53
2017-09-21T14:38:20.322Z,7.87
2017-09-21T14:40:48.132Z,7.00
2017-09-21T14:43:16.078Z,7.10
2017-09-21T14:45:43.783Z,8.93
2017-09-21T14:48:11.572Z,7.30
2017-09-21T14:50:39.422Z,6.03
2017-09-21T14:53:07.115Z,6.30
2017-09-21T14:55:34.771Z,7.77
2017-09-21T14:58:02.564Z,5.50
2017-09-21T15:00:30.311Z,7.17
2017-09-21T15:02:57.968Z,8.23
2017-09-21T15:05:25.696Z,8.03
2017-09-21T15:07:53.348Z,6.53
2017-09-21T15:10:20.999Z,5.87
2017-09-21T15:12:48.699Z,7.33
2017-09-21T15:15:16.340Z,5.57
2017-09-21T15:17:44.029Z,6.00
2017-09-21T15:20:11.874Z,5.87
2017-09-21T15:22:39.527Z,8.00
2017-09-21T15:25:07.183Z,6.10
2017-09-21T15:27:35.021Z,8.50
2017-09-21T15:30:02.772Z,6.27
2017-09-21T15:32:30.443Z,8.00
2017-09-21T15:34:58.673Z,6.17
2017-09-21T15:37:26.420Z,6.03
2017-09-21T15:39:54.167Z,5.87
2017-09-21T15:42:21.914Z,6.07
2017-09-21T15:44:49.871Z,6.87
2017-09-21T15:47:17.613Z,5.13
2017-09-21T15:49:45.319Z,6.03
2017-09-21T15:52:13.006Z,4.80
2017-09-21T15:54:40.753Z,4.33
2017-09-21T15:57:08.910Z,7.43
2017-09-21T15:59:36.555Z,4.90
2017-09-21T16:02:04.207Z,5.37
2017-09-21T16:04:31.954Z,4.30
2017-09-21T16:06:59.695Z,4.60
2017-09-21T16:09:27.443Z,5.40
2017-09-21T16:11:55.394Z,5.30
2017-09-21T16:14:23.143Z,4.73
2017-09-21T16:16:50.795Z,7.20
2017-09-21T16:19:18.738Z,8.23
2017-09-21T16:21:46.396Z,5.60
2017-09-21T16:24:14.039Z,11.03
2017-09-21T16:26:41.981Z,8.70
2017-09-21T16:29:09.631Z,16.47
2017-09-21T16:31:37.372Z,9.07
2017-09-21T16:34:05.128Z,9.17
2017-09-21T16:36:32.865Z,13.60
2017-09-21T16:39:00.617Z,10.40
2017-09-21T16:41:28.400Z,14.20
2017-09-21T16:43:56.623Z,10.00
2017-09-21T16:46:24.311Z,8.87
2017-09-21T16:48:52.039Z,9.43
2017-09-21T16:51:19.690Z,10.40
2017-09-21T16:53:47.769Z,9.50
2017-09-21T16:56:15.669Z,9.53
2017-09-21T16:58:43.416Z,16.40
2017-09-21T17:01:11.119Z,19.57
2017-09-21T17:03:38.883Z,9.23
2017-09-21T17:06:06.654Z,9.53
2017-09-21T17:08:34.348Z,10.33
2017-09-21T17:11:02.152Z,11.10
2017-09-21T17:13:29.796Z,9.70
2017-09-21T17:15:57.508Z,13.83
2017-09-21T17:18:25.292Z,14.70
2017-09-21T17:20:52.944Z,12.50
2017-09-21T17:23:20.684Z,12.00
2017-09-21T17:25:48.399Z,10.63
2017-09-21T17:28:16.074Z,10.77
2017-09-21T17:30:43.822Z,11.40
2017-09-21T17:33:11.570Z,14.30
2017-09-21T17:35:39.316Z,11.30
2017-09-21T17:38:07.066Z,11.60
2017-09-21T17:40:34.862Z,10.50
2017-09-21T17:43:02.568Z,17.13
2017-09-21T17:45:30.631Z,11.73
2017-09-21T17:47:58.327Z,13.20
2017-09-21T17:50:25.983Z,11.87
2017-09-21T17:52:53.755Z,10.53
2017-09-21T17:55:21.480Z,12.43
2017-09-21T17:57:49.146Z,9.50
2017-09-21T18:00:16.810Z,15.40
2017-09-21T18:02:45.869Z,14.97
2017-09-21T18:05:14.014Z,9.77
2017-09-21T18:07:42.183Z,10.00
2017-09-21T18:10:09.896Z,10.03
2017-09-21T18:12:37.535Z,9.60
2017-09-21T18:15:05.325Z,8.77
2017-09-21T18:17:33.035Z,11.73
2017-09-21T18:20:00.818Z,11.83
2017-09-21T18:22:28.473Z,9.83
2017-09-21T18:24:56.191Z,9.07
2017-09-21T18:27:23.874Z,10.40
2017-09-21T18:29:51.603Z,10.23
2017-09-21T18:32:19.453Z,11.83
2017-09-21T18:34:47.203Z,11.77
2017-09-21T18:37:14.956Z,11.77
2017-09-21T18:39:42.797Z,10.60
2017-09-21T18:42:10.483Z,10.17
2017-09-21T18:44:38.171Z,10.63
2017-09-21T18:47:05.896Z,11.87
2017-09-21T18:49:33.686Z,10.53
2017-09-21T18:52:01.339Z,11.20
2017-09-21T18:54:29.179Z,11.60
2017-09-21T18:56:56.927Z,10.27
2017-09-21T18:59:24.674Z,10.40
2017-09-21T19:01:52.421Z,11.10
2017-09-21T19:04:20.076Z,10.17
2017-09-21T19:06:47.814Z,10.93
2017-09-21T19:09:15.646Z,9.97
2017-09-21T19:11:43.410Z,10.60
2017-09-21T19:14:11.060Z,10.50
2017-09-21T19:16:38.767Z,10.70
2017-09-21T19:19:06.422Z,15.30
2017-09-21T19:21:34.074Z,10.87
2017-09-21T19:24:02.763Z,9.67
2017-09-21T19:26:30.443Z,9.90
2017-09-21T19:28:59.487Z,10.60
2017-09-21T19:31:27.198Z,10.03
2017-09-21T19:33:54.905Z,11.60
2017-09-21T19:36:22.977Z,15.20
2017-09-21T19:38:50.883Z,11.80
2017-09-21T19:41:19.471Z,10.63
2017-09-21T19:43:47.528Z,11.90
2017-09-21T19:46:15.249Z,13.27
2017-09-21T19:48:42.998Z,18.13
2017-09-21T19:51:10.746Z,15.13
2017-09-21T19:53:38.595Z,11.57
2017-09-21T19:56:06.307Z,12.00
2017-09-21T19:58:34.053Z,9.97
2017-09-21T20:01:03.542Z,11.00
2017-09-21T20:03:31.328Z,13.43
2017-09-21T20:05:59.039Z,12.43
2017-09-21T20:08:26.775Z,11.50
2017-09-21T20:10:54.656Z,10.77
2017-09-21T20:13:22.828Z,10.83
2017-09-21T20:15:50.590Z,11.43
2017-09-21T20:18:18.303Z,9.93
2017-09-21T20:20:45.967Z,10.93
2017-09-21T20:23:14.021Z,11.23
2017-09-21T20:25:41.970Z,15.50
2017-09-21T20:28:11.218Z,13.23
2017-09-21T20:30:39.413Z,11.27
2017-09-21T20:33:07.455Z,12.13
2017-09-21T20:35:35.424Z,11.53
2017-09-21T20:38:04.686Z,12.70
2017-09-21T20:40:32.565Z,11.13
2017-09-21T20:43:00.945Z,11.87
2017-09-21T20:45:28.978Z,11.27
2017-09-21T20:47:57.342Z,13.20
2017-09-21T20:50:25.305Z,11.30
2017-09-21T20:52:53.851Z,13.73
2017-09-21T20:55:21.518Z,13.70
2017-09-21T20:57:49.572Z,24.13
2017-09-21T21:00:17.670Z,11.03
2017-09-21T21:02:45.334Z,11.47
2017-09-21T21:05:12.992Z,10.43
2017-09-21T21:07:40.706Z,9.90
2017-09-21T21:10:08.352Z,10.77
2017-09-21T21:12:35.995Z,11.50
2017-09-21T21:15:03.784Z,12.70
2017-09-21T21:17:31.530Z,12.60
2017-09-21T21:19:59.277Z,12.80
2017-09-21T21:22:27.030Z,15.97
2017-09-21T21:24:54.772Z,12.60
2017-09-21T21:27:22.519Z,10.43
2017-09-21T21:29:50.227Z,12.57
2017-09-21T21:32:17.911Z,14.98
2017-09-21T21:34:45.561Z,14.98
2017-09-21T21:37:13.407Z,15.90
2017-09-21T21:39:41.099Z,13.93
2017-09-21T21:42:08.750Z,14.57
2017-09-21T21:44:36.463Z,13.33
2017-09-21T21:47:04.601Z,21.37
2017-09-21T21:49:32.255Z,13.13
2017-09-21T21:52:00.183Z,13.90
2017-09-21T21:54:27.839Z,14.77
2017-09-21T21:56:55.510Z,11.90
2017-09-21T21:59:23.606Z,13.15
2017-09-21T22:01:51.254Z,13.27
2017-09-21T22:04:19.035Z,12.75
2017-09-21T22:06:46.760Z,15.38
2017-09-21T22:09:14.421Z,15.85
2017-09-21T22:11:42.078Z,11.93
2017-09-21T22:14:09.922Z,16.73
2017-09-21T22:16:37.670Z,18.52
2017-09-21T22:19:05.420Z,13.98
2017-09-21T22:21:33.163Z,10.05
2017-09-21T22:24:00.914Z,11.10
2017-09-21T22:26:28.566Z,11.05
2017-09-21T22:28:56.337Z,11.63
2017-09-21T22:31:24.384Z,11.32
2017-09-21T22:33:52.436Z,16.70
2017-09-21T22:36:20.673Z,11.82
2017-09-21T22:38:48.429Z,13.75
2017-09-21T22:41:16.167Z,12.00
2017-09-21T22:43:43.960Z,11.85
2017-09-21T22:46:11.615Z,12.00
2017-09-21T22:48:39.267Z,12.75
2017-09-21T22:51:07.054Z,14.07
2017-09-21T22:53:34.703Z,11.35
2017-09-21T22:56:02.449Z,12.02
2017-09-21T22:58:30.153Z,13.77
2017-09-21T23:00:57.799Z,11.68
2017-09-21T23:03:25.438Z,11.48
2017-09-21T23:05:53.158Z,11.27
2017-09-21T23:08:21.207Z,11.05
2017-09-21T23:10:49.255Z,15.43
2017-09-21T23:13:16.987Z,12.50
2017-09-21T23:15:44.733Z,13.30
2017-09-21T23:18:12.481Z,11.43
2017-09-21T23:20:40.330Z,11.32
2017-09-21T23:23:08.077Z,12.15
2017-09-21T23:25:35.743Z,13.57
2017-09-21T23:28:03.983Z,13.60
2017-09-21T23:30:31.731Z,17.77
2017-09-21T23:32:59.478Z,11.50
2017-09-21T23:35:27.182Z,13.75
2017-09-21T23:37:54.891Z,14.50
2017-09-21T23:40:22.926Z,9.93
2017-09-21T23:42:50.672Z,12.50
2017-09-21T23:45:18.316Z,10.35
2017-09-21T23:47:45.966Z,11.80
2017-09-21T23:50:13.709Z,11.43
2017-09-21T23:52:41.355Z,12.48
2017-09-21T23:55:09.100Z,8.63
2017-09-21T23:57:36.810Z,10.93
